createdAt,value
2024-03-25T00:00:41.253Z,12.60
2024-03-25T00:03:34.404Z,12.80
2024-03-25T00:06:04.181Z,12.50
2024-03-25T00:08:34.356Z,11.90
2024-03-25T00:11:03.156Z,11.60
2024-03-25T00:13:32.744Z,12.70
2024-03-25T00:16:08.898Z,11.70
2024-03-25T00:18:47.741Z,10.70
2024-03-25T00:21:16.339Z,12.30
2024-03-25T00:23:46.301Z,10.90
2024-03-25T00:26:15.190Z,11.20
2024-03-25T00:28:48.673Z,11.90
2024-03-25T00:31:18.454Z,11.00
2024-03-25T00:33:48.162Z,11.20
2024-03-25T00:36:17.578Z,10.90
2024-03-25T00:38:47.135Z,11.90
2024-03-25T00:41:17.740Z,11.50
2024-03-25T00:43:47.633Z,11.40
2024-03-25T00:46:17.805Z,11.70
2024-03-25T00:48:47.471Z,11.60
2024-03-25T00:51:17.052Z,11.60
2024-03-25T00:53:46.465Z,12.00
2024-03-25T00:56:15.978Z,13.20
2024-03-25T00:58:47.499Z,11.60
2024-03-25T01:01:16.620Z,12.60
2024-03-25T01:03:45.582Z,12.70
2024-03-25T01:06:15.083Z,13.00
2024-03-25T01:08:46.073Z,12.80
2024-03-25T01:11:14.799Z,12.40
2024-03-25T01:13:44.027Z,13.90
2024-03-25T01:16:16.061Z,12.90
2024-03-25T01:18:45.406Z,13.30
2024-03-25T01:21:15.407Z,13.80
2024-03-25T01:23:51.510Z,12.60
2024-03-25T01:26:20.750Z,12.90
2024-03-25T01:28:50.245Z,13.90
2024-03-25T01:31:20.788Z,14.30
2024-03-25T01:33:51.680Z,13.40
2024-03-25T01:36:22.160Z,13.50
2024-03-25T01:38:51.753Z,13.70
2024-03-25T01:41:28.746Z,13.10
2024-03-25T01:44:00.659Z,13.40
2024-03-25T01:46:30.863Z,13.90
2024-03-25T01:49:00.262Z,14.30
2024-03-25T01:51:30.566Z,13.90
2024-03-25T01:54:01.150Z,14.00
2024-03-25T01:56:37.359Z,13.50
2024-03-25T01:59:09.230Z,14.60
2024-03-25T02:01:40.068Z,14.10
2024-03-25T02:04:09.458Z,14.10
2024-03-25T02:06:42.802Z,14.10
2024-03-25T02:09:14.049Z,14.80
2024-03-25T02:11:43.818Z,15.60
2024-03-25T02:14:13.728Z,15.00
2024-03-25T02:16:43.250Z,14.40
2024-03-25T02:24:51.205Z,14.80
2024-03-25T02:28:06.033Z,14.90
2024-03-25T02:34:48.055Z,15.90
2024-03-25T02:38:35.126Z,15.30
2024-03-25T02:41:50.786Z,15.10
2024-03-25T02:44:36.121Z,14.70
2024-03-25T02:47:06.147Z,15.20
2024-03-25T02:49:36.027Z,15.10
2024-03-25T02:52:04.702Z,14.70
2024-03-25T02:54:33.560Z,15.10
2024-03-25T02:57:03.214Z,15.10
2024-03-25T02:59:33.370Z,15.60
2024-03-25T03:02:02.262Z,14.30
2024-03-25T03:04:31.732Z,14.30
2024-03-25T03:07:00.574Z,14.50
2024-03-25T03:09:29.561Z,14.50
2024-03-25T03:11:58.542Z,14.00
2024-03-25T03:14:27.236Z,14.80
2024-03-25T03:16:59.752Z,15.10
2024-03-25T03:19:30.224Z,15.50
2024-03-25T03:21:58.963Z,15.80
2024-03-25T03:24:27.721Z,16.20
2024-03-25T03:26:57.753Z,15.70
2024-03-25T03:29:27.536Z,15.80
2024-03-25T03:31:55.964Z,27.20
2024-03-25T03:34:26.068Z,34.50
2024-03-25T03:36:56.706Z,26.30
2024-03-25T03:39:26.096Z,17.70
2024-03-25T03:41:54.960Z,15.90
2024-03-25T03:44:25.948Z,16.50
2024-03-25T03:46:56.600Z,16.80
2024-03-25T03:49:25.884Z,16.70
2024-03-25T03:51:54.770Z,18.30
2024-03-25T03:54:24.065Z,19.00
2024-03-25T03:56:53.262Z,18.00
2024-03-25T03:59:23.860Z,19.00
2024-03-25T04:01:53.151Z,20.50
2024-03-25T04:04:22.536Z,19.10
2024-03-25T04:06:51.294Z,18.20
2024-03-25T04:09:34.920Z,16.50
2024-03-25T04:12:04.513Z,17.00
2024-03-25T04:14:34.218Z,16.70
2024-03-25T04:17:04.325Z,16.40
2024-03-25T04:19:33.182Z,17.00
2024-03-25T04:22:04.291Z,16.70
2024-03-25T04:24:32.942Z,17.30
2024-03-25T04:27:01.777Z,17.30
2024-03-25T04:29:30.757Z,17.50
2024-03-25T04:31:59.263Z,18.00
2024-03-25T04:34:28.549Z,19.80
2024-03-25T04:36:57.851Z,18.30
2024-03-25T04:39:26.480Z,20.00
2024-03-25T04:41:55.277Z,19.10
2024-03-25T04:44:24.025Z,19.10
2024-03-25T04:46:53.019Z,17.70
2024-03-25T04:49:22.581Z,17.70
2024-03-25T04:51:52.937Z,16.60
2024-03-25T04:54:21.629Z,19.20
2024-03-25T04:56:52.785Z,19.30
2024-03-25T04:59:22.803Z,19.20
2024-03-25T05:01:53.144Z,20.50
2024-03-25T05:04:22.196Z,18.40
2024-03-25T05:06:53.371Z,17.80
2024-03-25T05:09:22.197Z,18.90
2024-03-25T05:11:51.052Z,18.20
2024-03-25T05:14:20.073Z,18.70
2024-03-25T05:17:24.983Z,18.20
2024-03-25T05:19:52.140Z,19.40
2024-03-25T05:22:21.196Z,19.50
2024-03-25T05:24:51.484Z,20.30
2024-03-25T05:27:20.443Z,20.40
2024-03-25T05:30:32.025Z,19.10
2024-03-25T05:36:42.081Z,19.90
2024-03-25T05:40:19.242Z,18.10
2024-03-25T05:43:30.843Z,16.90
2024-03-25T05:46:03.071Z,17.30
2024-03-25T05:50:24.124Z,17.70
2024-03-25T05:56:02.844Z,19.10
2024-03-25T05:58:41.212Z,18.00
2024-03-25T06:05:41.218Z,17.80
2024-03-25T06:08:28.035Z,19.00
2024-03-25T06:11:29.560Z,19.70
2024-03-25T06:17:47.041Z,18.70
2024-03-25T06:23:55.099Z,17.10
2024-03-25T06:26:46.968Z,18.30
2024-03-25T06:29:16.045Z,17.70
2024-03-25T06:32:03.104Z,16.90
2024-03-25T06:34:32.068Z,17.60
2024-03-25T06:37:03.063Z,18.50
2024-03-25T06:39:31.476Z,17.70
2024-03-25T06:42:00.970Z,17.80
2024-03-25T06:44:31.737Z,18.20
2024-03-25T06:47:04.638Z,17.40
2024-03-25T06:49:35.893Z,18.10
2024-03-25T06:52:05.711Z,16.70
2024-03-25T06:54:34.664Z,17.10
2024-03-25T06:57:05.084Z,17.00
2024-03-25T06:59:37.367Z,17.70
2024-03-25T07:02:07.119Z,17.90
2024-03-25T07:04:37.336Z,18.00
2024-03-25T07:07:06.949Z,18.00
2024-03-25T07:09:38.064Z,17.90
2024-03-25T07:12:08.124Z,17.10
2024-03-25T07:14:37.999Z,15.60
2024-03-25T07:17:07.058Z,17.00
2024-03-25T07:19:35.995Z,15.90
2024-03-25T07:22:07.139Z,14.60
2024-03-25T07:24:36.682Z,14.60
2024-03-25T07:27:06.906Z,14.40
2024-03-25T07:29:36.470Z,12.20
2024-03-25T07:32:06.166Z,11.80
2024-03-25T07:34:35.535Z,11.00
2024-03-25T07:37:05.261Z,14.30
2024-03-25T07:39:34.217Z,30.00
2024-03-25T07:42:05.594Z,24.80
2024-03-25T07:44:35.252Z,24.00
2024-03-25T07:47:05.999Z,13.40
2024-03-25T07:49:35.330Z,8.80
2024-03-25T07:52:04.993Z,7.00
2024-03-25T07:54:39.788Z,5.10
2024-03-25T07:57:27.556Z,5.60
2024-03-25T08:00:16.076Z,5.10
2024-03-25T08:04:28.473Z,5.70
2024-03-25T08:07:00.932Z,5.60
2024-03-25T08:09:34.928Z,4.70
2024-03-25T08:12:26.213Z,4.50
2024-03-25T08:15:23.876Z,4.30
2024-03-25T08:18:05.808Z,4.70
2024-03-25T08:20:40.845Z,4.20
2024-03-25T08:23:10.596Z,4.90
2024-03-25T08:25:42.239Z,6.40
2024-03-25T08:28:12.007Z,6.60
2024-03-25T08:30:41.101Z,7.00
2024-03-25T08:33:10.644Z,7.00
2024-03-25T08:35:40.258Z,6.60
2024-03-25T08:38:10.786Z,6.90
2024-03-25T08:40:40.170Z,6.20
2024-03-25T08:43:09.422Z,8.00
2024-03-25T08:45:38.634Z,8.10
2024-03-25T08:48:08.298Z,7.50
2024-03-25T08:50:37.567Z,7.80
2024-03-25T08:53:07.392Z,7.60
2024-03-25T08:55:36.529Z,8.30
2024-03-25T08:58:06.273Z,8.00
2024-03-25T09:00:35.986Z,8.80
2024-03-25T09:03:06.294Z,8.70
2024-03-25T09:05:37.233Z,9.70
2024-03-25T09:08:07.645Z,8.50
2024-03-25T09:10:54.525Z,8.70
2024-03-25T09:13:26.681Z,10.10
2024-03-25T09:15:55.864Z,9.30
2024-03-25T09:18:24.517Z,9.80
2024-03-25T09:20:54.873Z,10.00
2024-03-25T09:23:24.085Z,10.00
2024-03-25T09:25:54.995Z,10.90
2024-03-25T09:28:24.385Z,10.90
2024-03-25T09:30:52.886Z,10.40
2024-03-25T09:33:23.870Z,10.70
2024-03-25T09:35:52.843Z,10.50
2024-03-25T09:38:22.438Z,11.00
2024-03-25T09:40:54.954Z,11.00
2024-03-25T09:43:44.383Z,10.90
2024-03-25T09:46:13.764Z,12.70
2024-03-25T09:48:44.149Z,12.40
2024-03-25T09:51:13.157Z,12.70
2024-03-25T09:53:43.348Z,12.80
2024-03-25T09:56:13.822Z,11.60
2024-03-25T09:58:45.135Z,11.20
2024-03-25T10:01:14.134Z,11.60
2024-03-25T10:03:43.537Z,9.30
2024-03-25T10:06:12.504Z,11.20
2024-03-25T10:08:42.896Z,12.80
2024-03-25T10:11:11.799Z,9.90
2024-03-25T10:13:45.058Z,9.50
2024-03-25T10:16:14.821Z,14.60
2024-03-25T10:18:45.365Z,13.10
2024-03-25T10:21:13.975Z,19.20
2024-03-25T10:23:46.635Z,12.50
2024-03-25T10:26:27.548Z,13.80
2024-03-25T10:29:00.827Z,11.50
2024-03-25T10:31:30.440Z,9.40
2024-03-25T10:34:00.722Z,8.60
2024-03-25T10:36:30.040Z,9.50
2024-03-25T10:39:09.422Z,8.60
2024-03-25T10:41:38.835Z,5.70
2024-03-25T10:44:10.866Z,3.90
2024-03-25T10:46:40.022Z,4.50
2024-03-25T10:49:25.691Z,3.60
2024-03-25T10:51:57.125Z,5.10
2024-03-25T10:54:27.776Z,3.00
2024-03-25T10:57:05.561Z,3.60
2024-03-25T10:59:42.964Z,3.70
2024-03-25T11:02:13.975Z,4.80
2024-03-25T11:04:46.386Z,6.20
2024-03-25T11:07:16.082Z,5.40
2024-03-25T11:09:54.463Z,6.30
2024-03-25T11:12:33.737Z,6.20
2024-03-25T11:15:05.671Z,7.80
2024-03-25T11:17:36.436Z,3.10
2024-03-25T11:20:14.821Z,3.40
2024-03-25T11:22:51.340Z,5.40
2024-03-25T11:25:22.671Z,10.40
2024-03-25T11:27:52.220Z,9.20
2024-03-25T11:30:28.414Z,7.60
2024-03-25T11:32:57.455Z,5.60
2024-03-25T11:35:27.118Z,5.50
2024-03-25T11:38:00.258Z,5.70
2024-03-25T11:40:29.105Z,4.90
2024-03-25T11:42:58.099Z,5.20
2024-03-25T11:45:27.281Z,4.90
2024-03-25T11:47:57.688Z,4.40
2024-03-25T11:50:26.960Z,5.60
2024-03-25T11:52:56.886Z,4.40
2024-03-25T11:55:29.174Z,4.50
2024-03-25T11:57:59.194Z,4.40
2024-03-25T12:00:28.460Z,7.10
2024-03-25T12:02:59.074Z,6.30
2024-03-25T12:05:28.856Z,6.60
2024-03-25T12:08:00.581Z,6.40
2024-03-25T12:10:47.848Z,6.10
2024-03-25T12:13:19.757Z,6.70
2024-03-25T12:15:49.560Z,5.30
2024-03-25T12:18:20.612Z,4.90
2024-03-25T12:20:50.802Z,5.80
2024-03-25T12:23:21.072Z,7.60
2024-03-25T12:25:53.648Z,7.20
2024-03-25T12:28:46.343Z,7.00
2024-03-25T12:31:24.938Z,6.20
2024-03-25T12:33:58.417Z,7.40
2024-03-25T12:36:35.173Z,7.30
2024-03-25T12:39:06.938Z,8.10
2024-03-25T12:41:38.007Z,5.20
2024-03-25T12:44:08.303Z,4.80
2024-03-25T12:46:37.808Z,6.20
2024-03-25T12:49:08.104Z,5.50
2024-03-25T12:51:37.726Z,6.60
2024-03-25T12:54:09.823Z,11.60
2024-03-25T12:56:39.834Z,5.10
2024-03-25T12:59:10.164Z,6.50
2024-03-25T13:01:39.685Z,6.20
2024-03-25T13:04:22.154Z,5.00
2024-03-25T13:07:15.799Z,4.70
2024-03-25T13:10:01.238Z,4.60
2024-03-25T13:12:35.220Z,4.80
2024-03-25T13:15:39.120Z,5.00
2024-03-25T13:18:25.872Z,5.70
2024-03-25T13:21:12.431Z,6.20
2024-03-25T13:24:06.172Z,6.40
2024-03-25T13:26:48.130Z,5.10
2024-03-25T13:29:29.179Z,4.30
2024-03-25T13:32:24.412Z,3.70
2024-03-25T13:35:12.077Z,4.00
2024-03-25T13:38:02.694Z,4.30
2024-03-25T13:40:59.755Z,4.60
2024-03-25T13:44:05.382Z,4.20
2024-03-25T13:47:20.158Z,4.60
2024-03-25T13:50:28.000Z,4.30
2024-03-25T13:53:26.787Z,4.50
2024-03-25T13:56:02.355Z,4.90
2024-03-25T13:58:38.916Z,5.60
2024-03-25T14:01:29.053Z,6.00
2024-03-25T14:04:01.477Z,6.20
2024-03-25T14:06:34.059Z,8.00
2024-03-25T14:09:13.814Z,6.70
2024-03-25T14:12:03.337Z,6.00
2024-03-25T14:14:33.185Z,5.70
2024-03-25T14:17:04.397Z,5.50
2024-03-25T14:19:34.223Z,5.50
2024-03-25T14:22:18.796Z,5.30
2024-03-25T14:24:48.440Z,6.00
2024-03-25T14:27:17.776Z,5.60
2024-03-25T14:29:47.251Z,5.40
2024-03-25T14:32:16.773Z,5.00
2024-03-25T14:34:46.572Z,5.50
2024-03-25T14:37:17.556Z,5.60
2024-03-25T14:39:49.605Z,5.10
2024-03-25T14:42:21.371Z,4.90
2024-03-25T14:44:52.221Z,6.00
2024-03-25T14:47:21.197Z,5.30
2024-03-25T14:50:07.707Z,5.30
2024-03-25T14:52:44.999Z,5.40
2024-03-25T14:55:16.750Z,4.90
2024-03-25T14:57:46.418Z,4.40
2024-03-25T15:00:25.590Z,5.00
2024-03-25T15:02:56.825Z,5.90
2024-03-25T15:05:27.004Z,4.50
2024-03-25T15:07:56.862Z,4.20
2024-03-25T15:10:32.724Z,4.50
2024-03-25T15:13:02.627Z,4.50
2024-03-25T15:15:39.497Z,5.10
2024-03-25T15:18:10.671Z,4.10
2024-03-25T15:20:40.363Z,6.30
2024-03-25T15:23:11.149Z,6.40
2024-03-25T15:25:43.726Z,6.00
2024-03-25T15:28:12.860Z,6.20
2024-03-25T15:30:41.953Z,4.30
2024-03-25T15:33:11.358Z,3.00
2024-03-25T15:35:43.941Z,4.70
2024-03-25T15:38:13.202Z,4.00
2024-03-25T15:40:43.449Z,4.10
2024-03-25T15:43:13.073Z,4.40
2024-03-25T15:45:42.826Z,10.70
2024-03-25T15:48:12.954Z,21.30
2024-03-25T15:50:41.434Z,13.50
2024-03-25T15:53:10.941Z,6.10
2024-03-25T15:55:40.880Z,6.30
2024-03-25T15:58:15.034Z,7.50
2024-03-25T16:00:44.795Z,7.90
2024-03-25T16:03:14.559Z,7.90
2024-03-25T16:05:43.944Z,5.90
2024-03-25T16:08:17.594Z,9.50
2024-03-25T16:10:48.199Z,6.90
2024-03-25T16:13:18.405Z,7.70
2024-03-25T16:15:48.346Z,8.00
2024-03-25T16:18:18.163Z,9.40
2024-03-25T16:20:48.229Z,9.50
2024-03-25T16:23:20.986Z,9.20
2024-03-25T16:25:50.114Z,9.60
2024-03-25T16:28:19.433Z,10.10
2024-03-25T16:30:49.375Z,9.20
2024-03-25T16:33:19.215Z,8.10
2024-03-25T16:35:48.431Z,8.50
2024-03-25T16:38:18.804Z,7.60
2024-03-25T16:40:50.429Z,8.20
2024-03-25T16:43:21.080Z,6.90
2024-03-25T16:45:51.893Z,5.70
2024-03-25T16:48:21.431Z,6.20
2024-03-25T16:50:51.680Z,6.40
2024-03-25T16:53:24.716Z,6.10
2024-03-25T16:55:55.861Z,6.20
2024-03-25T16:58:24.899Z,6.10
2024-03-25T17:00:54.880Z,5.40
2024-03-25T17:03:24.925Z,6.70
2024-03-25T17:06:05.494Z,6.50
2024-03-25T17:08:38.302Z,17.10
2024-03-25T17:11:08.580Z,30.70
2024-03-25T17:13:38.438Z,16.30
2024-03-25T17:16:07.563Z,15.30
2024-03-25T17:18:36.158Z,11.20
2024-03-25T17:21:04.199Z,12.70
2024-03-25T17:23:32.411Z,10.40
2024-03-25T17:26:03.978Z,16.20
2024-03-25T17:28:36.495Z,19.10
2024-03-25T17:31:05.281Z,25.60
2024-03-25T17:33:33.181Z,25.90
2024-03-25T17:36:01.032Z,20.60
2024-03-25T17:38:28.914Z,11.30
2024-03-25T17:40:56.731Z,17.90
2024-03-25T17:43:24.930Z,21.20
2024-03-25T17:45:53.740Z,20.20
2024-03-25T17:48:22.251Z,18.60
2024-03-25T17:51:02.067Z,24.40
2024-03-25T17:53:30.583Z,25.00
2024-03-25T17:56:00.188Z,23.20
2024-03-25T17:58:28.064Z,33.40
2024-03-25T18:00:58.146Z,66.90
2024-03-25T18:03:25.873Z,56.20
2024-03-25T18:05:54.046Z,149.10
2024-03-25T18:08:21.912Z,57.10
2024-03-25T18:10:49.631Z,37.10
2024-03-25T18:13:17.509Z,30.70
2024-03-25T18:15:50.232Z,26.40
2024-03-25T18:18:19.299Z,23.20
2024-03-25T18:20:47.897Z,24.30
2024-03-25T18:23:16.734Z,28.50
2024-03-25T18:25:46.045Z,29.70
2024-03-25T18:28:14.161Z,30.20
2024-03-25T18:30:42.212Z,24.10
2024-03-25T18:33:10.126Z,25.20
2024-03-25T18:35:39.904Z,22.80
2024-03-25T18:38:09.204Z,22.40
2024-03-25T18:40:37.138Z,22.20
2024-03-25T18:43:05.194Z,21.90
2024-03-25T18:45:33.554Z,24.80
2024-03-25T18:48:01.659Z,33.90
2024-03-25T18:50:29.614Z,36.90
2024-03-25T18:52:59.796Z,35.40
2024-03-25T18:55:27.679Z,79.20
2024-03-25T18:57:55.664Z,77.70
2024-03-25T19:25:38.640Z,49.60
2024-03-25T19:28:08.955Z,43.80
2024-03-25T19:30:38.332Z,37.60
2024-03-25T19:33:07.490Z,31.30
2024-03-25T19:35:36.476Z,31.20
2024-03-25T19:38:05.335Z,28.20
2024-03-25T19:40:34.191Z,28.90
2024-03-25T19:43:04.508Z,30.60
2024-03-25T19:45:33.989Z,35.80
2024-03-25T19:48:02.901Z,34.90
2024-03-25T19:50:31.648Z,30.20
2024-03-25T19:53:00.737Z,30.90
2024-03-25T19:55:29.495Z,30.40
2024-03-25T19:57:59.664Z,29.30
2024-03-25T20:00:28.762Z,28.40
2024-03-25T20:02:58.616Z,28.10
2024-03-25T20:05:27.547Z,27.80
2024-03-25T20:07:58.767Z,26.70
2024-03-25T20:10:27.567Z,24.40
2024-03-25T20:12:58.633Z,26.10
2024-03-25T20:15:31.248Z,26.10
2024-03-25T20:18:00.232Z,27.10
2024-03-25T20:20:32.610Z,42.60
2024-03-25T20:23:03.180Z,41.10
2024-03-25T20:25:32.506Z,53.20
2024-03-25T20:28:01.547Z,48.60
2024-03-25T20:30:30.303Z,43.40
2024-03-25T20:32:59.907Z,38.00
2024-03-25T20:35:31.878Z,37.80
2024-03-25T20:38:02.485Z,35.30
2024-03-25T20:40:32.032Z,35.70
2024-03-25T20:43:02.631Z,32.40
2024-03-25T20:45:33.590Z,33.40
2024-03-25T20:48:02.496Z,29.80
2024-03-25T20:50:31.953Z,31.00
2024-03-25T20:53:01.166Z,29.60
2024-03-25T20:55:31.671Z,29.20
2024-03-25T20:58:01.864Z,28.00
2024-03-25T21:00:31.260Z,31.80
2024-03-25T21:03:00.668Z,44.60
2024-03-25T21:05:29.814Z,45.40
2024-03-25T21:07:59.348Z,40.90
2024-03-25T21:10:28.271Z,34.70
2024-03-25T21:12:57.574Z,36.80
2024-03-25T21:15:26.774Z,34.50
2024-03-25T21:17:55.854Z,40.00
2024-03-25T21:20:25.175Z,41.90
2024-03-25T21:22:53.625Z,35.90
2024-03-25T21:25:22.988Z,39.90
2024-03-25T21:27:51.424Z,43.40
2024-03-25T21:30:20.186Z,45.40
2024-03-25T21:32:50.239Z,40.10
2024-03-25T21:35:19.985Z,31.10
2024-03-25T21:37:49.090Z,27.30
2024-03-25T21:40:18.051Z,28.80
2024-03-25T21:42:47.468Z,30.30
2024-03-25T21:45:16.566Z,32.50
2024-03-25T21:47:45.568Z,31.40
2024-03-25T21:50:15.813Z,31.70
2024-03-25T21:52:44.850Z,28.80
2024-03-25T21:55:13.874Z,29.80
2024-03-25T21:57:43.340Z,29.30
2024-03-25T22:00:14.535Z,29.00
2024-03-25T22:02:45.376Z,30.60
2024-03-25T22:05:14.916Z,30.60
2024-03-25T22:07:45.831Z,28.30
2024-03-25T22:10:15.397Z,30.10
2024-03-25T22:12:44.939Z,30.90
2024-03-25T22:15:13.790Z,29.60
2024-03-25T22:17:42.584Z,30.80
2024-03-25T22:20:11.607Z,30.90
2024-03-25T22:22:40.323Z,30.60
2024-03-25T22:25:08.978Z,31.40
2024-03-25T22:27:37.568Z,30.10
2024-03-25T22:30:07.355Z,31.20
2024-03-25T22:32:39.039Z,28.30
2024-03-25T22:35:08.287Z,27.60
2024-03-25T22:37:41.283Z,27.90
2024-03-25T22:40:11.317Z,26.90
2024-03-25T22:42:41.847Z,27.50
2024-03-25T22:45:10.644Z,26.70
2024-03-25T22:47:39.822Z,26.90
2024-03-25T22:50:08.847Z,26.50
2024-03-25T22:52:39.149Z,27.80
2024-03-25T22:55:08.620Z,26.70
2024-03-25T22:57:39.158Z,27.50
2024-03-25T23:00:15.615Z,26.50
2024-03-25T23:02:45.161Z,27.10
2024-03-25T23:05:14.029Z,26.90
2024-03-25T23:07:43.528Z,27.40
2024-03-25T23:10:12.120Z,27.60
2024-03-25T23:12:41.300Z,26.90
2024-03-25T23:15:11.466Z,27.20
2024-03-25T23:17:40.319Z,26.10
2024-03-25T23:20:10.399Z,26.30
2024-03-25T23:22:39.357Z,27.90
2024-03-25T23:25:10.692Z,28.90
2024-03-25T23:27:40.207Z,27.00
2024-03-25T23:30:10.195Z,28.10
2024-03-25T23:32:39.310Z,28.30
2024-03-25T23:35:09.943Z,28.50
2024-03-25T23:37:39.001Z,27.80
2024-03-25T23:40:09.325Z,30.10
2024-03-25T23:42:38.255Z,35.10
2024-03-25T23:45:08.585Z,39.00
2024-03-25T23:47:38.738Z,36.90
2024-03-25T23:50:08.345Z,36.50
2024-03-25T23:52:37.361Z,36.90
2024-03-25T23:55:06.919Z,36.80
2024-03-25T23:57:37.413Z,43.10
